PWSweather.com
Personal Weather Stations
Station Observations
SWHWX01
St AppolinardFR 38160

St AppolinardFR 38160

Lat: 45.191, Lon: 5.268

Elevation: 1460

Station Type: Davis Vantage Pro2 Plus

www.sweetwebhome.com/?show=wxindex

High Low Average
Temperature 74.2°F23.4°C 54.3°F12.4°C 65.1°F18.4°C
Dew Point 59.3°F15.2°C 52.6°F11.4°C 56.2°F13.4°C
Winds 6.4 mph 10.3 kmh Calm Calm 2.0 mph WSW3.2 kmh WSW
Wind Gusts 11.0 mph17.7 kmh -- 3.0 mph4.8 kmh
Humidity 95% 53% 74%
Pressure 30.06 in1017.9 mb 29.98 in1015.2 mb -
Precipitation 0.00 in0.0 mm - -
Hour Temp Dew Point Humidity Winds Wind Gusts Pressure Precip Precip Rate Daily Precip Total
12:00 AM 59.4°F15.2°C 55.8°F13.2°C 88% 1.1 mph W1.8 kmh W 2.0 mph3.2 kmh 30.05 in1017.6 mb - 0.00 in0.0 mm 0.00 in0.0 mm
12:30 AM 58.1°F14.5°C 55.2°F12.9°C 90% Calm Calm -- 30.06 in1017.9 mb - 0.00 in0.0 mm 0.00 in0.0 mm
01:00 AM 56.8°F13.8°C 54.2°F12.3°C 91% 2.8 mph W4.5 kmh W 4.0 mph6.4 kmh 30.06 in1017.9 mb - 0.00 in0.0 mm 0.00 in0.0 mm
01:30 AM 57.4°F14.1°C 54.8°F12.7°C 91% Calm Calm -- 30.06 in1017.9 mb - 0.00 in0.0 mm 0.00 in0.0 mm
02:00 AM 56.6°F13.7°C 54.3°F12.4°C 92% 2.4 mph W3.9 kmh W 3.0 mph4.8 kmh 30.06 in1017.9 mb - 0.00 in0.0 mm 0.00 in0.0 mm
02:30 AM 56.3°F13.5°C 54.3°F12.4°C 93% 1.5 mph W2.4 kmh W 2.0 mph3.2 kmh 30.06 in1017.9 mb - 0.00 in0.0 mm 0.00 in0.0 mm
03:00 AM 55.7°F13.2°C 53.7°F12.1°C 93% Calm Calm -- 30.05 in1017.6 mb - 0.00 in0.0 mm 0.00 in0.0 mm
03:30 AM 55.5°F13.1°C 53.8°F12.1°C 94% 1.7 mph W2.7 kmh W 2.0 mph3.2 kmh 30.06 in1017.9 mb - 0.00 in0.0 mm 0.00 in0.0 mm
04:00 AM 55.4°F13.0°C 53.7°F12.1°C 94% 2.6 mph W4.2 kmh W 3.0 mph4.8 kmh 30.05 in1017.6 mb - 0.00 in0.0 mm 0.00 in0.0 mm
04:30 AM 55.4°F13.0°C 53.7°F12.1°C 94% Calm Calm -- 30.05 in1017.6 mb - 0.00 in0.0 mm 0.00 in0.0 mm
05:00 AM 55.1°F12.8°C 53.1°F11.7°C 93% 3.1 mph W5.0 kmh W 4.0 mph6.4 kmh 30.05 in1017.6 mb - 0.00 in0.0 mm 0.00 in0.0 mm
05:30 AM 54.3°F12.4°C 52.6°F11.4°C 94% 0.3 mph W0.5 kmh W 2.0 mph3.2 kmh 30.04 in1017.3 mb - 0.00 in0.0 mm 0.00 in0.0 mm
06:00 AM 55.2°F12.9°C 53.8°F12.1°C 95% Calm Calm -- 30.05 in1017.6 mb - 0.00 in0.0 mm 0.00 in0.0 mm
06:30 AM 56.8°F13.8°C 54.8°F12.7°C 93% Calm Calm -- 30.05 in1017.6 mb - 0.00 in0.0 mm 0.00 in0.0 mm
07:00 AM 58.7°F14.8°C 56.1°F13.4°C 91% Calm Calm -- 30.05 in1017.6 mb - 0.00 in0.0 mm 0.00 in0.0 mm
07:30 AM 61.0°F16.1°C 57.1°F13.9°C 87% 0.4 mph W0.6 kmh W 2.0 mph3.2 kmh 30.05 in1017.6 mb - 0.00 in0.0 mm 0.00 in0.0 mm
08:00 AM 62.5°F16.9°C 57.6°F14.2°C 84% 0.5 mph W0.8 kmh W 1.0 mph1.6 kmh 30.05 in1017.6 mb - 0.00 in0.0 mm 0.00 in0.0 mm
08:30 AM 63.6°F17.6°C 56.6°F13.7°C 78% Calm Calm -- 30.05 in1017.6 mb - 0.00 in0.0 mm 0.00 in0.0 mm
09:00 AM 65.4°F18.6°C 57.7°F14.3°C 76% 0.5 mph W0.8 kmh W 1.0 mph1.6 kmh 30.05 in1017.6 mb - 0.00 in0.0 mm 0.00 in0.0 mm
09:30 AM 66.8°F19.3°C 59.3°F15.2°C 77% 0.5 mph W0.8 kmh W 1.0 mph1.6 kmh 30.05 in1017.6 mb - 0.00 in0.0 mm 0.00 in0.0 mm
10:00 AM 67.4°F19.7°C 58.1°F14.5°C 72% 0.8 mph WSW1.3 kmh WSW 2.0 mph3.2 kmh 30.05 in1017.6 mb - 0.00 in0.0 mm 0.00 in0.0 mm
10:30 AM 68.6°F20.3°C 58.0°F14.4°C 69% 2.0 mph WSW3.2 kmh WSW 2.0 mph3.2 kmh 30.05 in1017.6 mb - 0.00 in0.0 mm 0.00 in0.0 mm
11:00 AM 69.8°F21.0°C 58.3°F14.6°C 67% 1.3 mph WSW2.1 kmh WSW 2.0 mph3.2 kmh 30.05 in1017.6 mb - 0.00 in0.0 mm 0.00 in0.0 mm
11:30 AM 70.8°F21.6°C 58.0°F14.4°C 64% 1.9 mph WSW3.1 kmh WSW 4.0 mph6.4 kmh 30.04 in1017.3 mb - 0.00 in0.0 mm 0.00 in0.0 mm
12:00 PM 70.3°F21.3°C 58.8°F14.9°C 67% 2.2 mph SW3.5 kmh SW 4.0 mph6.4 kmh 30.04 in1017.3 mb - 0.00 in0.0 mm 0.00 in0.0 mm
12:30 PM 70.9°F21.6°C 56.3°F13.5°C 60% 1.6 mph SW2.6 kmh SW 4.0 mph6.4 kmh 30.03 in1016.9 mb - 0.00 in0.0 mm 0.00 in0.0 mm
01:00 PM 71.4°F21.9°C 57.7°F14.3°C 62% 2.7 mph SW4.3 kmh SW 3.0 mph4.8 kmh 30.03 in1016.9 mb - 0.00 in0.0 mm 0.00 in0.0 mm
01:30 PM 71.2°F21.8°C 56.6°F13.7°C 60% 5.8 mph SW9.3 kmh SW 10.0 mph16.1 kmh 30.02 in1016.6 mb - 0.00 in0.0 mm 0.00 in0.0 mm
02:00 PM 71.7°F22.1°C 58.4°F14.7°C 63% 3.7 mph WSW6.0 kmh WSW 5.0 mph8.0 kmh 30.02 in1016.6 mb - 0.00 in0.0 mm 0.00 in0.0 mm
02:30 PM 72.1°F22.3°C 59.3°F15.2°C 64% 3.3 mph WSW5.3 kmh WSW 6.0 mph9.7 kmh 30.01 in1016.3 mb - 0.00 in0.0 mm 0.00 in0.0 mm
03:00 PM 73.0°F22.8°C 59.2°F15.1°C 62% 6.4 mph WSW10.3 kmh WSW 11.0 mph17.7 kmh 30.01 in1016.3 mb - 0.00 in0.0 mm 0.00 in0.0 mm
03:30 PM 73.1°F22.8°C 58.4°F14.7°C 60% 3.0 mph SW4.8 kmh SW 5.0 mph8.0 kmh 30.00 in1015.9 mb - 0.00 in0.0 mm 0.00 in0.0 mm
04:00 PM 72.5°F22.5°C 54.9°F12.7°C 54% 5.0 mph SW8.0 kmh SW 9.0 mph14.5 kmh 29.99 in1015.6 mb - 0.00 in0.0 mm 0.00 in0.0 mm
04:30 PM 71.8°F22.1°C 56.2°F13.4°C 58% 4.0 mph SW6.4 kmh SW 6.0 mph9.7 kmh 29.99 in1015.6 mb - 0.00 in0.0 mm 0.00 in0.0 mm
05:00 PM 73.5°F23.1°C 57.3°F14.1°C 57% 2.4 mph SW3.9 kmh SW 3.0 mph4.8 kmh 29.98 in1015.2 mb - 0.00 in0.0 mm 0.00 in0.0 mm
05:30 PM 74.2°F23.4°C 56.0°F13.3°C 53% 2.7 mph SW4.3 kmh SW 7.0 mph11.3 kmh 29.98 in1015.2 mb - 0.00 in0.0 mm 0.00 in0.0 mm
06:00 PM 74.0°F23.3°C 56.8°F13.8°C 55% 2.7 mph SW4.3 kmh SW 6.0 mph9.7 kmh 29.98 in1015.2 mb - 0.00 in0.0 mm 0.00 in0.0 mm
06:30 PM 73.1°F22.8°C 56.9°F13.8°C 57% 1.3 mph SW2.1 kmh SW 2.0 mph3.2 kmh 29.98 in1015.2 mb - 0.00 in0.0 mm 0.00 in0.0 mm
07:00 PM 71.1°F21.7°C 57.4°F14.1°C 62% Calm Calm -- 29.98 in1015.2 mb - 0.00 in0.0 mm 0.00 in0.0 mm
07:30 PM 69.3°F20.7°C 57.1°F13.9°C 65% 2.1 mph SW3.4 kmh SW 3.0 mph4.8 kmh 29.99 in1015.6 mb - 0.00 in0.0 mm 0.00 in0.0 mm
08:00 PM 68.4°F20.2°C 56.6°F13.7°C 66% 2.5 mph SW4.0 kmh SW 3.0 mph4.8 kmh 30.00 in1015.9 mb - 0.00 in0.0 mm 0.00 in0.0 mm
08:30 PM 67.4°F19.7°C 56.1°F13.4°C 67% 0.2 mph SW0.3 kmh SW -- 30.00 in1015.9 mb - 0.00 in0.0 mm 0.00 in0.0 mm
09:00 PM 66.4°F19.1°C 55.9°F13.3°C 69% 2.2 mph SW3.5 kmh SW 3.0 mph4.8 kmh 30.01 in1016.3 mb - 0.00 in0.0 mm 0.00 in0.0 mm
09:30 PM 66.0°F18.9°C 55.1°F12.8°C 68% 2.0 mph SW3.2 kmh SW 3.0 mph4.8 kmh 30.02 in1016.6 mb - 0.00 in0.0 mm 0.00 in0.0 mm
10:00 PM 65.8°F18.8°C 54.9°F12.7°C 68% 1.4 mph SW2.3 kmh SW 2.0 mph3.2 kmh 30.02 in1016.6 mb - 0.00 in0.0 mm 0.00 in0.0 mm
10:30 PM 64.8°F18.2°C 55.2°F12.9°C 71% 0.4 mph SW0.6 kmh SW 2.0 mph3.2 kmh 30.02 in1016.6 mb - 0.00 in0.0 mm 0.00 in0.0 mm
11:00 PM 64.9°F18.3°C 55.2°F12.9°C 71% 0.9 mph SW1.4 kmh SW 2.0 mph3.2 kmh 30.02 in1016.6 mb - 0.00 in0.0 mm 0.00 in0.0 mm
11:30 PM 64.7°F18.2°C 55.5°F13.1°C 72% 0.3 mph SW0.5 kmh SW 1.0 mph1.6 kmh 30.01 in1016.3 mb - 0.00 in0.0 mm 0.00 in0.0 mm